sensor_id;sensor_type;location;lat;lon;timestamp;P1;durP1;ratioP1;P2;durP2;ratioP2
67074;SDS011;53990;50.334;18.640;2023-04-06T00:00:17;62.20;;;31.70;;
67074;SDS011;53990;50.334;18.640;2023-04-06T00:03:04;62.90;;;33.90;;
67074;SDS011;53990;50.334;18.640;2023-04-06T00:05:31;62.00;;;34.30;;
67074;SDS011;53990;50.334;18.640;2023-04-06T00:07:58;57.70;;;31.80;;
67074;SDS011;53990;50.334;18.640;2023-04-06T00:10:25;57.20;;;31.50;;
67074;SDS011;53990;50.334;18.640;2023-04-06T00:12:52;58.50;;;32.30;;
67074;SDS011;53990;50.334;18.640;2023-04-06T00:15:20;59.30;;;31.80;;
67074;SDS011;53990;50.334;18.640;2023-04-06T00:17:47;58.50;;;32.70;;
67074;SDS011;53990;50.334;18.640;2023-04-06T00:20:14;58.90;;;32.00;;
67074;SDS011;53990;50.334;18.640;2023-04-06T00:22:42;63.80;;;36.40;;
67074;SDS011;53990;50.334;18.640;2023-04-06T00:25:09;66.30;;;37.00;;
67074;SDS011;53990;50.334;18.640;2023-04-06T00:27:38;68.20;;;37.00;;
67074;SDS011;53990;50.334;18.640;2023-04-06T00:30:12;65.00;;;36.40;;
67074;SDS011;53990;50.334;18.640;2023-04-06T00:32:39;61.90;;;36.10;;
67074;SDS011;53990;50.334;18.640;2023-04-06T00:35:06;66.90;;;38.30;;
67074;SDS011;53990;50.334;18.640;2023-04-06T00:37:33;69.10;;;38.20;;
67074;SDS011;53990;50.334;18.640;2023-04-06T00:40:00;73.30;;;42.10;;
67074;SDS011;53990;50.334;18.640;2023-04-06T00:42:27;74.30;;;41.30;;
67074;SDS011;53990;50.334;18.640;2023-04-06T00:44:59;75.90;;;43.40;;
67074;SDS011;53990;50.334;18.640;2023-04-06T00:47:26;73.80;;;43.00;;
67074;SDS011;53990;50.334;18.640;2023-04-06T00:49:53;73.50;;;41.10;;
67074;SDS011;53990;50.334;18.640;2023-04-06T00:52:21;77.40;;;40.50;;
67074;SDS011;53990;50.334;18.640;2023-04-06T00:54:48;72.70;;;39.10;;
67074;SDS011;53990;50.334;18.640;2023-04-06T00:57:16;74.80;;;40.00;;
67074;SDS011;53990;50.334;18.640;2023-04-06T00:59:43;80.70;;;42.10;;
67074;SDS011;53990;50.334;18.640;2023-04-06T01:02:11;78.90;;;41.10;;
67074;SDS011;53990;50.334;18.640;2023-04-06T01:04:37;81.50;;;43.10;;
67074;SDS011;53990;50.334;18.640;2023-04-06T01:07:04;78.10;;;42.90;;
67074;SDS011;53990;50.334;18.640;2023-04-06T01:09:31;79.80;;;43.00;;
67074;SDS011;53990;50.334;18.640;2023-04-06T01:11:58;80.10;;;42.70;;
67074;SDS011;53990;50.334;18.640;2023-04-06T01:14:25;80.10;;;40.80;;
67074;SDS011;53990;50.334;18.640;2023-04-06T01:16:52;87.10;;;45.00;;
67074;SDS011;53990;50.334;18.640;2023-04-06T01:19:19;80.60;;;42.30;;
67074;SDS011;53990;50.334;18.640;2023-04-06T01:21:47;74.10;;;39.60;;
67074;SDS011;53990;50.334;18.640;2023-04-06T01:24:16;85.70;;;42.90;;
67074;SDS011;53990;50.334;18.640;2023-04-06T01:26:43;84.20;;;41.80;;
67074;SDS011;53990;50.334;18.640;2023-04-06T01:29:11;83.40;;;42.10;;
67074;SDS011;53990;50.334;18.640;2023-04-06T01:31:39;79.90;;;41.50;;
67074;SDS011;53990;50.334;18.640;2023-04-06T01:34:06;80.40;;;42.70;;
67074;SDS011;53990;50.334;18.640;2023-04-06T01:36:33;86.40;;;42.70;;
67074;SDS011;53990;50.334;18.640;2023-04-06T01:38:59;86.80;;;42.30;;
67074;SDS011;53990;50.334;18.640;2023-04-06T01:41:26;85.40;;;42.10;;
67074;SDS011;53990;50.334;18.640;2023-04-06T01:43:53;83.80;;;43.00;;
67074;SDS011;53990;50.334;18.640;2023-04-06T01:46:21;83.70;;;40.90;;
67074;SDS011;53990;50.334;18.640;2023-04-06T01:48:47;80.10;;;40.80;;
67074;SDS011;53990;50.334;18.640;2023-04-06T01:51:14;86.50;;;40.80;;
67074;SDS011;53990;50.334;18.640;2023-04-06T01:53:41;84.70;;;42.20;;
67074;SDS011;53990;50.334;18.640;2023-04-06T01:56:08;81.00;;;41.00;;
67074;SDS011;53990;50.334;18.640;2023-04-06T01:58:35;79.10;;;38.60;;
67074;SDS011;53990;50.334;18.640;2023-04-06T02:01:02;64.50;;;35.20;;
67074;SDS011;53990;50.334;18.640;2023-04-06T02:03:29;73.80;;;37.80;;
67074;SDS011;53990;50.334;18.640;2023-04-06T02:05:55;78.30;;;39.40;;
67074;SDS011;53990;50.334;18.640;2023-04-06T02:08:22;78.80;;;40.60;;
67074;SDS011;53990;50.334;18.640;2023-04-06T02:10:49;81.20;;;43.60;;
67074;SDS011;53990;50.334;18.640;2023-04-06T02:13:15;83.00;;;42.80;;
67074;SDS011;53990;50.334;18.640;2023-04-06T02:15:42;79.60;;;40.90;;
67074;SDS011;53990;50.334;18.640;2023-04-06T02:18:09;79.00;;;43.10;;
67074;SDS011;53990;50.334;18.640;2023-04-06T02:20:36;80.10;;;43.60;;
67074;SDS011;53990;50.334;18.640;2023-04-06T02:23:03;82.10;;;41.10;;
67074;SDS011;53990;50.334;18.640;2023-04-06T02:25:30;83.20;;;43.70;;
67074;SDS011;53990;50.334;18.640;2023-04-06T02:27:57;80.30;;;42.00;;
67074;SDS011;53990;50.334;18.640;2023-04-06T02:30:23;73.80;;;40.90;;
67074;SDS011;53990;50.334;18.640;2023-04-06T02:32:50;79.70;;;41.50;;
67074;SDS011;53990;50.334;18.640;2023-04-06T02:35:17;81.90;;;41.70;;
67074;SDS011;53990;50.334;18.640;2023-04-06T02:37:44;76.70;;;41.30;;
67074;SDS011;53990;50.334;18.640;2023-04-06T02:40:11;76.00;;;41.00;;
67074;SDS011;53990;50.334;18.640;2023-04-06T02:42:38;75.30;;;39.70;;
67074;SDS011;53990;50.334;18.640;2023-04-06T02:45:05;75.10;;;40.10;;
67074;SDS011;53990;50.334;18.640;2023-04-06T02:47:33;73.50;;;41.50;;
67074;SDS011;53990;50.334;18.640;2023-04-06T02:50:00;77.40;;;40.80;;
67074;SDS011;53990;50.334;18.640;2023-04-06T02:52:27;72.20;;;40.50;;
67074;SDS011;53990;50.334;18.640;2023-04-06T02:54:54;70.40;;;38.50;;
67074;SDS011;53990;50.334;18.640;2023-04-06T02:57:21;67.20;;;38.10;;
67074;SDS011;53990;50.334;18.640;2023-04-06T02:59:48;78.00;;;40.70;;
67074;SDS011;53990;50.334;18.640;2023-04-06T03:02:14;71.60;;;37.60;;
67074;SDS011;53990;50.334;18.640;2023-04-06T03:04:42;64.40;;;36.00;;
67074;SDS011;53990;50.334;18.640;2023-04-06T03:07:09;60.30;;;33.20;;
67074;SDS011;53990;50.334;18.640;2023-04-06T03:09:37;61.10;;;33.80;;
67074;SDS011;53990;50.334;18.640;2023-04-06T03:12:04;57.90;;;32.40;;
67074;SDS011;53990;50.334;18.640;2023-04-06T03:14:31;60.80;;;33.10;;
67074;SDS011;53990;50.334;18.640;2023-04-06T03:16:58;58.40;;;34.30;;
67074;SDS011;53990;50.334;18.640;2023-04-06T03:19:25;64.30;;;34.80;;
67074;SDS011;53990;50.334;18.640;2023-04-06T03:21:51;63.40;;;34.70;;
67074;SDS011;53990;50.334;18.640;2023-04-06T03:24:18;60.20;;;34.80;;
67074;SDS011;53990;50.334;18.640;2023-04-06T03:26:45;64.50;;;36.30;;
67074;SDS011;53990;50.334;18.640;2023-04-06T03:29:12;67.40;;;36.50;;
67074;SDS011;53990;50.334;18.640;2023-04-06T03:31:38;68.90;;;35.20;;
67074;SDS011;53990;50.334;18.640;2023-04-06T03:34:05;69.10;;;34.10;;
67074;SDS011;53990;50.334;18.640;2023-04-06T03:36:33;59.30;;;33.30;;
67074;SDS011;53990;50.334;18.640;2023-04-06T03:39:00;62.60;;;33.30;;
67074;SDS011;53990;50.334;18.640;2023-04-06T03:41:27;58.30;;;32.90;;
67074;SDS011;53990;50.334;18.640;2023-04-06T03:43:54;62.30;;;32.70;;
67074;SDS011;53990;50.334;18.640;2023-04-06T03:46:21;56.30;;;32.40;;
67074;SDS011;53990;50.334;18.640;2023-04-06T03:48:48;55.80;;;31.30;;
67074;SDS011;53990;50.334;18.640;2023-04-06T03:51:15;62.50;;;31.70;;
67074;SDS011;53990;50.334;18.640;2023-04-06T03:53:41;56.90;;;31.30;;
67074;SDS011;53990;50.334;18.640;2023-04-06T03:56:08;55.90;;;31.70;;
67074;SDS011;53990;50.334;18.640;2023-04-06T03:58:35;58.30;;;30.50;;
67074;SDS011;53990;50.334;18.640;2023-04-06T04:01:02;61.70;;;31.80;;
67074;SDS011;53990;50.334;18.640;2023-04-06T04:03:28;53.60;;;30.70;;
67074;SDS011;53990;50.334;18.640;2023-04-06T04:05:55;58.40;;;31.50;;
67074;SDS011;53990;50.334;18.640;2023-04-06T04:08:24;57.90;;;31.60;;
67074;SDS011;53990;50.334;18.640;2023-04-06T04:10:51;60.70;;;32.50;;
67074;SDS011;53990;50.334;18.640;2023-04-06T04:13:18;61.30;;;33.50;;
67074;SDS011;53990;50.334;18.640;2023-04-06T04:15:45;62.60;;;33.40;;
67074;SDS011;53990;50.334;18.640;2023-04-06T04:18:13;60.40;;;33.40;;
67074;SDS011;53990;50.334;18.640;2023-04-06T04:20:40;58.10;;;31.60;;
67074;SDS011;53990;50.334;18.640;2023-04-06T04:23:07;68.90;;;33.80;;
67074;SDS011;53990;50.334;18.640;2023-04-06T04:25:34;63.10;;;32.80;;
67074;SDS011;53990;50.334;18.640;2023-04-06T04:28:01;65.70;;;35.70;;
67074;SDS011;53990;50.334;18.640;2023-04-06T04:30:28;58.90;;;33.50;;
67074;SDS011;53990;50.334;18.640;2023-04-06T04:32:55;62.00;;;32.40;;
67074;SDS011;53990;50.334;18.640;2023-04-06T04:35:22;57.40;;;32.50;;
67074;SDS011;53990;50.334;18.640;2023-04-06T04:37:48;60.10;;;33.20;;
67074;SDS011;53990;50.334;18.640;2023-04-06T04:40:15;61.60;;;31.40;;
67074;SDS011;53990;50.334;18.640;2023-04-06T04:42:43;60.90;;;31.80;;
67074;SDS011;53990;50.334;18.640;2023-04-06T04:45:10;54.40;;;30.60;;
67074;SDS011;53990;50.334;18.640;2023-04-06T04:47:37;63.00;;;32.50;;
67074;SDS011;53990;50.334;18.640;2023-04-06T04:50:04;52.10;;;29.90;;
67074;SDS011;53990;50.334;18.640;2023-04-06T04:52:33;57.10;;;29.90;;
67074;SDS011;53990;50.334;18.640;2023-04-06T04:54:59;57.90;;;28.60;;
67074;SDS011;53990;50.334;18.640;2023-04-06T04:57:26;49.40;;;27.50;;
67074;SDS011;53990;50.334;18.640;2023-04-06T04:59:53;52.30;;;26.30;;
67074;SDS011;53990;50.334;18.640;2023-04-06T05:02:20;48.30;;;26.70;;
67074;SDS011;53990;50.334;18.640;2023-04-06T05:04:47;44.30;;;25.90;;
67074;SDS011;53990;50.334;18.640;2023-04-06T05:07:14;48.30;;;25.70;;
67074;SDS011;53990;50.334;18.640;2023-04-06T05:09:41;46.00;;;24.70;;
67074;SDS011;53990;50.334;18.640;2023-04-06T05:12:08;48.40;;;26.10;;
67074;SDS011;53990;50.334;18.640;2023-04-06T05:14:35;47.50;;;26.30;;
67074;SDS011;53990;50.334;18.640;2023-04-06T05:17:02;71.70;;;39.90;;
67074;SDS011;53990;50.334;18.640;2023-04-06T05:19:29;77.60;;;46.10;;
67074;SDS011;53990;50.334;18.640;2023-04-06T05:21:56;86.20;;;47.70;;
67074;SDS011;53990;50.334;18.640;2023-04-06T05:24:23;101.70;;;53.70;;
67074;SDS011;53990;50.334;18.640;2023-04-06T05:26:49;96.70;;;52.50;;
67074;SDS011;53990;50.334;18.640;2023-04-06T05:29:18;101.50;;;53.60;;
67074;SDS011;53990;50.334;18.640;2023-04-06T05:31:45;108.10;;;57.80;;
67074;SDS011;53990;50.334;18.640;2023-04-06T05:34:12;113.50;;;58.80;;
67074;SDS011;53990;50.334;18.640;2023-04-06T05:36:39;105.50;;;60.60;;
67074;SDS011;53990;50.334;18.640;2023-04-06T05:39:06;97.00;;;53.60;;
67074;SDS011;53990;50.334;18.640;2023-04-06T05:41:33;88.80;;;48.90;;
67074;SDS011;53990;50.334;18.640;2023-04-06T05:44:00;77.80;;;44.70;;
67074;SDS011;53990;50.334;18.640;2023-04-06T05:46:27;72.50;;;43.10;;
67074;SDS011;53990;50.334;18.640;2023-04-06T05:48:54;68.80;;;43.20;;
67074;SDS011;53990;50.334;18.640;2023-04-06T05:51:21;77.60;;;46.70;;
67074;SDS011;53990;50.334;18.640;2023-04-06T05:53:47;73.60;;;47.00;;
67074;SDS011;53990;50.334;18.640;2023-04-06T05:56:14;85.70;;;52.90;;
67074;SDS011;53990;50.334;18.640;2023-04-06T05:58:41;80.00;;;52.30;;
67074;SDS011;53990;50.334;18.640;2023-04-06T06:01:08;79.90;;;50.10;;
67074;SDS011;53990;50.334;18.640;2023-04-06T06:03:36;83.60;;;49.40;;
67074;SDS011;53990;50.334;18.640;2023-04-06T06:06:03;80.00;;;49.10;;
67074;SDS011;53990;50.334;18.640;2023-04-06T06:08:30;81.30;;;49.70;;
67074;SDS011;53990;50.334;18.640;2023-04-06T06:10:57;225.20;;;97.70;;
67074;SDS011;53990;50.334;18.640;2023-04-06T06:13:24;372.10;;;147.70;;
67074;SDS011;53990;50.334;18.640;2023-04-06T06:15:51;337.60;;;120.40;;
67074;SDS011;53990;50.334;18.640;2023-04-06T06:18:18;289.30;;;104.50;;
67074;SDS011;53990;50.334;18.640;2023-04-06T06:20:44;222.00;;;83.50;;
67074;SDS011;53990;50.334;18.640;2023-04-06T06:23:13;320.90;;;111.50;;
67074;SDS011;53990;50.334;18.640;2023-04-06T06:25:40;436.70;;;150.80;;
67074;SDS011;53990;50.334;18.640;2023-04-06T06:28:07;338.00;;;120.40;;
67074;SDS011;53990;50.334;18.640;2023-04-06T06:30:34;176.40;;;71.90;;
67074;SDS011;53990;50.334;18.640;2023-04-06T06:33:01;165.30;;;67.60;;
67074;SDS011;53990;50.334;18.640;2023-04-06T06:35:28;205.20;;;78.60;;
67074;SDS011;53990;50.334;18.640;2023-04-06T06:37:54;115.10;;;53.40;;
67074;SDS011;53990;50.334;18.640;2023-04-06T06:40:21;136.10;;;58.00;;
67074;SDS011;53990;50.334;18.640;2023-04-06T06:42:50;102.30;;;49.80;;
67074;SDS011;53990;50.334;18.640;2023-04-06T06:45:18;100.90;;;47.80;;
67074;SDS011;53990;50.334;18.640;2023-04-06T06:47:44;90.70;;;44.50;;
67074;SDS011;53990;50.334;18.640;2023-04-06T06:50:12;67.60;;;34.90;;
67074;SDS011;53990;50.334;18.640;2023-04-06T06:52:39;38.00;;;20.70;;
67074;SDS011;53990;50.334;18.640;2023-04-06T06:55:07;19.40;;;11.70;;
67074;SDS011;53990;50.334;18.640;2023-04-06T06:57:34;16.20;;;9.80;;
67074;SDS011;53990;50.334;18.640;2023-04-06T07:00:01;14.50;;;9.20;;
67074;SDS011;53990;50.334;18.640;2023-04-06T07:02:28;19.60;;;10.50;;
67074;SDS011;53990;50.334;18.640;2023-04-06T07:04:55;21.00;;;11.20;;
67074;SDS011;53990;50.334;18.640;2023-04-06T07:07:21;17.90;;;10.40;;
67074;SDS011;53990;50.334;18.640;2023-04-06T07:09:48;16.70;;;10.20;;
67074;SDS011;53990;50.334;18.640;2023-04-06T07:12:15;16.60;;;10.90;;
67074;SDS011;53990;50.334;18.640;2023-04-06T07:14:43;15.90;;;10.70;;
67074;SDS011;53990;50.334;18.640;2023-04-06T07:17:09;17.30;;;11.20;;
67074;SDS011;53990;50.334;18.640;2023-04-06T07:19:36;18.80;;;11.50;;
67074;SDS011;53990;50.334;18.640;2023-04-06T07:22:03;22.20;;;13.40;;
67074;SDS011;53990;50.334;18.640;2023-04-06T07:24:31;18.40;;;10.90;;
67074;SDS011;53990;50.334;18.640;2023-04-06T07:26:58;19.60;;;12.10;;
67074;SDS011;53990;50.334;18.640;2023-04-06T07:29:27;21.60;;;13.20;;
67074;SDS011;53990;50.334;18.640;2023-04-06T07:31:54;19.40;;;12.50;;
67074;SDS011;53990;50.334;18.640;2023-04-06T07:34:22;21.50;;;13.70;;
67074;SDS011;53990;50.334;18.640;2023-04-06T07:36:48;26.20;;;15.20;;
67074;SDS011;53990;50.334;18.640;2023-04-06T07:39:15;23.60;;;14.90;;
67074;SDS011;53990;50.334;18.640;2023-04-06T07:41:42;25.30;;;15.50;;
67074;SDS011;53990;50.334;18.640;2023-04-06T07:44:09;20.90;;;11.70;;
67074;SDS011;53990;50.334;18.640;2023-04-06T07:46:36;16.50;;;10.90;;
67074;SDS011;53990;50.334;18.640;2023-04-06T07:49:02;19.40;;;11.80;;
67074;SDS011;53990;50.334;18.640;2023-04-06T07:51:29;19.00;;;11.90;;
67074;SDS011;53990;50.334;18.640;2023-04-06T07:53:57;14.90;;;10.50;;
67074;SDS011;53990;50.334;18.640;2023-04-06T07:56:24;17.40;;;11.70;;
67074;SDS011;53990;50.334;18.640;2023-04-06T07:58:51;17.60;;;12.00;;
67074;SDS011;53990;50.334;18.640;2023-04-06T08:01:18;17.80;;;12.00;;
67074;SDS011;53990;50.334;18.640;2023-04-06T08:03:45;24.30;;;13.50;;
67074;SDS011;53990;50.334;18.640;2023-04-06T08:06:13;22.60;;;14.60;;
67074;SDS011;53990;50.334;18.640;2023-04-06T08:08:41;24.40;;;14.80;;
67074;SDS011;53990;50.334;18.640;2023-04-06T08:11:08;26.30;;;15.20;;
67074;SDS011;53990;50.334;18.640;2023-04-06T08:13:35;24.50;;;15.10;;
67074;SDS011;53990;50.334;18.640;2023-04-06T08:16:02;16.90;;;12.50;;
67074;SDS011;53990;50.334;18.640;2023-04-06T08:18:29;20.50;;;13.20;;
67074;SDS011;53990;50.334;18.640;2023-04-06T08:20:56;21.80;;;14.60;;
67074;SDS011;53990;50.334;18.640;2023-04-06T08:23:23;20.80;;;14.20;;
67074;SDS011;53990;50.334;18.640;2023-04-06T08:25:50;22.00;;;14.80;;
67074;SDS011;53990;50.334;18.640;2023-04-06T08:28:19;20.30;;;14.00;;
67074;SDS011;53990;50.334;18.640;2023-04-06T08:30:46;23.40;;;16.00;;
67074;SDS011;53990;50.334;18.640;2023-04-06T08:33:13;22.30;;;14.20;;
67074;SDS011;53990;50.334;18.640;2023-04-06T08:35:40;19.50;;;13.70;;
67074;SDS011;53990;50.334;18.640;2023-04-06T08:38:07;22.70;;;14.50;;
67074;SDS011;53990;50.334;18.640;2023-04-06T08:40:38;19.50;;;13.00;;
67074;SDS011;53990;50.334;18.640;2023-04-06T08:43:07;19.80;;;13.70;;
67074;SDS011;53990;50.334;18.640;2023-04-06T08:45:35;20.00;;;12.60;;
67074;SDS011;53990;50.334;18.640;2023-04-06T08:48:02;17.70;;;12.30;;
67074;SDS011;53990;50.334;18.640;2023-04-06T08:50:29;17.30;;;12.80;;
67074;SDS011;53990;50.334;18.640;2023-04-06T08:52:56;18.50;;;10.90;;
67074;SDS011;53990;50.334;18.640;2023-04-06T08:55:23;15.80;;;10.40;;
67074;SDS011;53990;50.334;18.640;2023-04-06T08:57:50;13.10;;;10.30;;
67074;SDS011;53990;50.334;18.640;2023-04-06T09:00:21;17.10;;;11.50;;
67074;SDS011;53990;50.334;18.640;2023-04-06T09:02:49;18.30;;;11.90;;
67074;SDS011;53990;50.334;18.640;2023-04-06T09:05:17;15.00;;;11.30;;
67074;SDS011;53990;50.334;18.640;2023-04-06T09:07:44;17.20;;;11.40;;
67074;SDS011;53990;50.334;18.640;2023-04-06T09:10:11;16.30;;;12.10;;
67074;SDS011;53990;50.334;18.640;2023-04-06T09:12:38;15.00;;;11.70;;
67074;SDS011;53990;50.334;18.640;2023-04-06T09:15:05;17.70;;;11.30;;
67074;SDS011;53990;50.334;18.640;2023-04-06T09:17:33;18.40;;;12.10;;
67074;SDS011;53990;50.334;18.640;2023-04-06T09:20:01;15.90;;;11.50;;
67074;SDS011;53990;50.334;18.640;2023-04-06T09:22:37;17.20;;;11.20;;
67074;SDS011;53990;50.334;18.640;2023-04-06T09:25:04;17.10;;;11.50;;
67074;SDS011;53990;50.334;18.640;2023-04-06T09:27:40;16.30;;;11.50;;
67074;SDS011;53990;50.334;18.640;2023-04-06T09:30:09;16.40;;;11.60;;
67074;SDS011;53990;50.334;18.640;2023-04-06T09:32:46;18.80;;;12.60;;
67074;SDS011;53990;50.334;18.640;2023-04-06T09:35:13;17.80;;;11.70;;
67074;SDS011;53990;50.334;18.640;2023-04-06T09:37:42;16.20;;;10.80;;
67074;SDS011;53990;50.334;18.640;2023-04-06T09:40:10;17.40;;;11.40;;
67074;SDS011;53990;50.334;18.640;2023-04-06T09:42:37;17.80;;;11.50;;
67074;SDS011;53990;50.334;18.640;2023-04-06T09:45:04;16.60;;;11.50;;
67074;SDS011;53990;50.334;18.640;2023-04-06T09:47:31;16.70;;;11.90;;
67074;SDS011;53990;50.334;18.640;2023-04-06T09:49:59;16.40;;;11.30;;
67074;SDS011;53990;50.334;18.640;2023-04-06T09:52:31;16.70;;;11.70;;
67074;SDS011;53990;50.334;18.640;2023-04-06T09:55:02;15.90;;;11.10;;
67074;SDS011;53990;50.334;18.640;2023-04-06T09:57:52;15.70;;;11.80;;
67074;SDS011;53990;50.334;18.640;2023-04-06T10:00:21;15.80;;;12.00;;
67074;SDS011;53990;50.334;18.640;2023-04-06T10:02:54;17.50;;;11.90;;
67074;SDS011;53990;50.334;18.640;2023-04-06T10:07:57;17.50;;;12.10;;
67074;SDS011;53990;50.334;18.640;2023-04-06T10:10:30;17.00;;;12.20;;
67074;SDS011;53990;50.334;18.640;2023-04-06T10:12:57;17.30;;;12.20;;
67074;SDS011;53990;50.334;18.640;2023-04-06T10:15:24;20.90;;;13.90;;
67074;SDS011;53990;50.334;18.640;2023-04-06T10:17:51;19.80;;;14.70;;
67074;SDS011;53990;50.334;18.640;2023-04-06T10:20:35;19.10;;;13.60;;
67074;SDS011;53990;50.334;18.640;2023-04-06T10:23:12;19.60;;;14.10;;
67074;SDS011;53990;50.334;18.640;2023-04-06T10:25:53;18.20;;;13.30;;
67074;SDS011;53990;50.334;18.640;2023-04-06T10:28:21;19.00;;;13.60;;
67074;SDS011;53990;50.334;18.640;2023-04-06T10:30:48;19.20;;;13.90;;
67074;SDS011;53990;50.334;18.640;2023-04-06T10:33:19;21.80;;;14.20;;
67074;SDS011;53990;50.334;18.640;2023-04-06T10:35:46;21.80;;;14.70;;
67074;SDS011;53990;50.334;18.640;2023-04-06T10:38:13;18.50;;;13.90;;
67074;SDS011;53990;50.334;18.640;2023-04-06T10:40:42;21.20;;;14.80;;
67074;SDS011;53990;50.334;18.640;2023-04-06T10:43:21;18.40;;;12.60;;
67074;SDS011;53990;50.334;18.640;2023-04-06T10:45:55;18.40;;;12.60;;
67074;SDS011;53990;50.334;18.640;2023-04-06T10:48:22;19.50;;;13.30;;
67074;SDS011;53990;50.334;18.640;2023-04-06T10:50:51;17.10;;;12.40;;
67074;SDS011;53990;50.334;18.640;2023-04-06T10:53:26;18.30;;;12.90;;
67074;SDS011;53990;50.334;18.640;2023-04-06T10:55:56;19.10;;;11.90;;
67074;SDS011;53990;50.334;18.640;2023-04-06T10:58:25;16.20;;;12.30;;
67074;SDS011;53990;50.334;18.640;2023-04-06T11:00:53;19.00;;;13.00;;
67074;SDS011;53990;50.334;18.640;2023-04-06T11:03:20;17.40;;;11.60;;
67074;SDS011;53990;50.334;18.640;2023-04-06T11:05:48;19.70;;;12.40;;
67074;SDS011;53990;50.334;18.640;2023-04-06T11:08:31;15.30;;;11.60;;
67074;SDS011;53990;50.334;18.640;2023-04-06T11:13:43;19.00;;;12.90;;
67074;SDS011;53990;50.334;18.640;2023-04-06T11:24:04;18.00;;;11.80;;
67074;SDS011;53990;50.334;18.640;2023-04-06T11:26:36;13.50;;;9.00;;
67074;SDS011;53990;50.334;18.640;2023-04-06T11:29:04;13.60;;;9.60;;
67074;SDS011;53990;50.334;18.640;2023-04-06T11:31:30;24.70;;;14.90;;
67074;SDS011;53990;50.334;18.640;2023-04-06T11:33:57;22.50;;;13.30;;
67074;SDS011;53990;50.334;18.640;2023-04-06T11:36:27;14.00;;;9.80;;
67074;SDS011;53990;50.334;18.640;2023-04-06T11:38:56;8.90;;;8.00;;
67074;SDS011;53990;50.334;18.640;2023-04-06T11:41:23;12.10;;;8.80;;
67074;SDS011;53990;50.334;18.640;2023-04-06T11:43:55;13.60;;;8.90;;
67074;SDS011;53990;50.334;18.640;2023-04-06T11:46:22;13.30;;;8.90;;
67074;SDS011;53990;50.334;18.640;2023-04-06T11:48:48;14.50;;;8.80;;
67074;SDS011;53990;50.334;18.640;2023-04-06T11:51:22;11.60;;;7.60;;
67074;SDS011;53990;50.334;18.640;2023-04-06T11:53:50;13.60;;;8.50;;
67074;SDS011;53990;50.334;18.640;2023-04-06T11:56:27;11.40;;;8.00;;
67074;SDS011;53990;50.334;18.640;2023-04-06T11:58:57;11.50;;;8.50;;
67074;SDS011;53990;50.334;18.640;2023-04-06T12:01:26;13.10;;;8.80;;
67074;SDS011;53990;50.334;18.640;2023-04-06T12:03:53;10.50;;;7.40;;
67074;SDS011;53990;50.334;18.640;2023-04-06T12:06:19;11.50;;;7.90;;
67074;SDS011;53990;50.334;18.640;2023-04-06T12:08:46;11.80;;;7.90;;
67074;SDS011;53990;50.334;18.640;2023-04-06T12:11:13;10.20;;;7.60;;
67074;SDS011;53990;50.334;18.640;2023-04-06T12:13:40;9.80;;;7.10;;
67074;SDS011;53990;50.334;18.640;2023-04-06T12:16:07;11.50;;;7.60;;
67074;SDS011;53990;50.334;18.640;2023-04-06T12:18:33;10.30;;;7.60;;
67074;SDS011;53990;50.334;18.640;2023-04-06T12:21:00;10.90;;;7.50;;
67074;SDS011;53990;50.334;18.640;2023-04-06T12:23:27;11.60;;;8.00;;
67074;SDS011;53990;50.334;18.640;2023-04-06T12:25:54;11.30;;;7.70;;
67074;SDS011;53990;50.334;18.640;2023-04-06T12:28:21;10.10;;;7.60;;
67074;SDS011;53990;50.334;18.640;2023-04-06T12:30:50;11.40;;;7.90;;
67074;SDS011;53990;50.334;18.640;2023-04-06T12:33:17;10.40;;;7.60;;
67074;SDS011;53990;50.334;18.640;2023-04-06T12:35:44;10.80;;;8.20;;
67074;SDS011;53990;50.334;18.640;2023-04-06T12:38:10;13.90;;;8.40;;
67074;SDS011;53990;50.334;18.640;2023-04-06T12:40:38;13.40;;;9.30;;
67074;SDS011;53990;50.334;18.640;2023-04-06T12:43:05;13.30;;;8.80;;
67074;SDS011;53990;50.334;18.640;2023-04-06T12:45:32;14.00;;;9.70;;
67074;SDS011;53990;50.334;18.640;2023-04-06T12:47:59;13.50;;;9.10;;
67074;SDS011;53990;50.334;18.640;2023-04-06T12:50:26;11.20;;;8.90;;
67074;SDS011;53990;50.334;18.640;2023-04-06T12:52:53;11.60;;;9.20;;
67074;SDS011;53990;50.334;18.640;2023-04-06T12:55:20;14.50;;;10.80;;
67074;SDS011;53990;50.334;18.640;2023-04-06T12:57:48;14.30;;;11.20;;
67074;SDS011;53990;50.334;18.640;2023-04-06T13:00:14;15.90;;;11.20;;
67074;SDS011;53990;50.334;18.640;2023-04-06T13:02:41;17.40;;;11.70;;
67074;SDS011;53990;50.334;18.640;2023-04-06T13:05:13;17.00;;;11.00;;
67074;SDS011;53990;50.334;18.640;2023-04-06T13:07:45;14.80;;;11.60;;
67074;SDS011;53990;50.334;18.640;2023-04-06T13:10:13;17.10;;;12.50;;
67074;SDS011;53990;50.334;18.640;2023-04-06T13:12:40;16.10;;;11.80;;
67074;SDS011;53990;50.334;18.640;2023-04-06T13:15:07;18.50;;;12.30;;
67074;SDS011;53990;50.334;18.640;2023-04-06T13:17:34;18.80;;;12.30;;
67074;SDS011;53990;50.334;18.640;2023-04-06T13:20:00;15.00;;;11.10;;
67074;SDS011;53990;50.334;18.640;2023-04-06T13:22:27;13.30;;;10.40;;
67074;SDS011;53990;50.334;18.640;2023-04-06T13:24:54;14.20;;;11.40;;
67074;SDS011;53990;50.334;18.640;2023-04-06T13:27:21;13.50;;;10.20;;
67074;SDS011;53990;50.334;18.640;2023-04-06T13:29:47;12.90;;;9.80;;
67074;SDS011;53990;50.334;18.640;2023-04-06T13:32:14;14.20;;;9.90;;
67074;SDS011;53990;50.334;18.640;2023-04-06T13:34:42;14.50;;;10.30;;
67074;SDS011;53990;50.334;18.640;2023-04-06T13:37:15;18.60;;;10.80;;
67074;SDS011;53990;50.334;18.640;2023-04-06T13:39:41;13.00;;;9.90;;
67074;SDS011;53990;50.334;18.640;2023-04-06T13:42:08;15.10;;;9.70;;
67074;SDS011;53990;50.334;18.640;2023-04-06T13:44:36;14.70;;;9.20;;
67074;SDS011;53990;50.334;18.640;2023-04-06T13:47:03;13.70;;;8.90;;
67074;SDS011;53990;50.334;18.640;2023-04-06T13:49:29;12.60;;;9.00;;
67074;SDS011;53990;50.334;18.640;2023-04-06T13:51:56;12.50;;;8.70;;
67074;SDS011;53990;50.334;18.640;2023-04-06T13:54:23;11.70;;;9.00;;
67074;SDS011;53990;50.334;18.640;2023-04-06T13:56:51;16.50;;;9.60;;
67074;SDS011;53990;50.334;18.640;2023-04-06T13:59:17;15.30;;;10.00;;
67074;SDS011;53990;50.334;18.640;2023-04-06T14:01:44;15.50;;;9.10;;
67074;SDS011;53990;50.334;18.640;2023-04-06T14:04:11;18.40;;;10.50;;
67074;SDS011;53990;50.334;18.640;2023-04-06T14:06:38;19.30;;;11.50;;
67074;SDS011;53990;50.334;18.640;2023-04-06T14:09:04;16.60;;;11.00;;
67074;SDS011;53990;50.334;18.640;2023-04-06T14:11:31;16.20;;;10.70;;
67074;SDS011;53990;50.334;18.640;2023-04-06T14:13:59;15.50;;;10.80;;
67074;SDS011;53990;50.334;18.640;2023-04-06T14:16:26;16.30;;;11.00;;
67074;SDS011;53990;50.334;18.640;2023-04-06T14:18:52;15.50;;;10.80;;
67074;SDS011;53990;50.334;18.640;2023-04-06T14:21:19;16.90;;;10.90;;
67074;SDS011;53990;50.334;18.640;2023-04-06T14:23:46;17.50;;;11.50;;